Terminal Aerodrome Forecast
Issued by NWS Bismarck, ND

Home | Current Version | Previous Version | Text Only | Print | Product List | Glossary Off
Versions: 1 2 3 4 5 6 7 8 9 10 11 12 13 14

000
FTUS43 KBIS 011720
TAFBIS
TAF
KBIS 011720Z 0118/0218 22008KT P6SM SKC
     FM012000 30012KT P6SM SKC
     FM020200 VRB04KT P6SM SKC
     FM020600 33008KT P6SM SCT090=

USA.gov is the U.S. government's official web portal to all federal, state and local government web resources and services.